Provost, Canada
Current Conditions -  °F | °C
As of 5:07 AM on Monday 22 Dec 2014 (Local Time) from CYLL Reporting Station
Light Snow Light Snow  
Wind Chill: 11°   Ceiling: 1900
Heat Index: 19°   Visibility: 1mi
Dew Point: 18°   Wind: 6mph
Humidity: 93%   Direction: 320°NW
Pressure: 29.65"   Gusts: NA
Location:  52.35°N, 110.27°W
Report Text: CYLL 221207Z AUTO 32005KT 1SM -SN OVC019 M07/M08 A2965 RMK SLP083
Loading
Personal Weather Stations






























Interactive Weather Map New forecast layout! Learn more

10-Day Weather Forecast

Advertisements
Track Severe Weather on mobile